sensor_id;sensor_type;location;lat;lon;timestamp;P1;durP1;ratioP1;P2;durP2;ratioP2
21030;SDS011;61072;47.808;7.636;2023-05-07T00:02:19;4.13;;;1.95;;
21030;SDS011;61072;47.808;7.636;2023-05-07T00:04:46;3.35;;;2.55;;
21030;SDS011;61072;47.808;7.636;2023-05-07T00:07:13;5.70;;;2.40;;
21030;SDS011;61072;47.808;7.636;2023-05-07T00:09:41;5.43;;;1.60;;
21030;SDS011;61072;47.808;7.636;2023-05-07T00:12:08;5.72;;;1.75;;
21030;SDS011;61072;47.808;7.636;2023-05-07T00:14:35;3.08;;;1.75;;
21030;SDS011;61072;47.808;7.636;2023-05-07T00:17:02;5.05;;;1.80;;
21030;SDS011;61072;47.808;7.636;2023-05-07T00:19:29;2.28;;;1.60;;
21030;SDS011;61072;47.808;7.636;2023-05-07T00:21:56;2.15;;;1.60;;
21030;SDS011;61072;47.808;7.636;2023-05-07T00:24:23;5.05;;;1.75;;
21030;SDS011;61072;47.808;7.636;2023-05-07T00:26:50;2.95;;;1.40;;
21030;SDS011;61072;47.808;7.636;2023-05-07T00:29:17;5.75;;;1.77;;
21030;SDS011;61072;47.808;7.636;2023-05-07T00:31:43;4.53;;;1.70;;
21030;SDS011;61072;47.808;7.636;2023-05-07T00:34:10;5.88;;;1.80;;
21030;SDS011;61072;47.808;7.636;2023-05-07T00:36:37;3.08;;;1.70;;
21030;SDS011;61072;47.808;7.636;2023-05-07T00:39:04;3.08;;;1.80;;
21030;SDS011;61072;47.808;7.636;2023-05-07T00:41:31;4.70;;;1.50;;
21030;SDS011;61072;47.808;7.636;2023-05-07T00:43:57;2.00;;;1.60;;
21030;SDS011;61072;47.808;7.636;2023-05-07T00:46:24;4.57;;;1.63;;
21030;SDS011;61072;47.808;7.636;2023-05-07T00:48:52;6.82;;;1.60;;
21030;SDS011;61072;47.808;7.636;2023-05-07T00:51:20;5.95;;;1.70;;
21030;SDS011;61072;47.808;7.636;2023-05-07T00:53:47;3.88;;;1.88;;
21030;SDS011;61072;47.808;7.636;2023-05-07T00:56:14;5.10;;;1.80;;
21030;SDS011;61072;47.808;7.636;2023-05-07T00:58:41;4.13;;;1.70;;
21030;SDS011;61072;47.808;7.636;2023-05-07T01:01:08;4.75;;;1.55;;
21030;SDS011;61072;47.808;7.636;2023-05-07T01:03:35;4.35;;;1.55;;
21030;SDS011;61072;47.808;7.636;2023-05-07T01:06:02;3.78;;;1.55;;
21030;SDS011;61072;47.808;7.636;2023-05-07T01:08:31;4.20;;;1.80;;
21030;SDS011;61072;47.808;7.636;2023-05-07T01:11:01;6.78;;;1.92;;
21030;SDS011;61072;47.808;7.636;2023-05-07T01:13:28;3.05;;;1.73;;
21030;SDS011;61072;47.808;7.636;2023-05-07T01:15:55;3.72;;;1.90;;
21030;SDS011;61072;47.808;7.636;2023-05-07T01:18:22;4.90;;;1.90;;
21030;SDS011;61072;47.808;7.636;2023-05-07T01:20:49;3.35;;;1.70;;
21030;SDS011;61072;47.808;7.636;2023-05-07T01:23:16;5.55;;;2.28;;
21030;SDS011;61072;47.808;7.636;2023-05-07T01:25:50;3.90;;;1.85;;
21030;SDS011;61072;47.808;7.636;2023-05-07T01:28:18;4.45;;;1.85;;
21030;SDS011;61072;47.808;7.636;2023-05-07T01:30:46;3.17;;;1.73;;
21030;SDS011;61072;47.808;7.636;2023-05-07T01:33:19;7.28;;;1.95;;
21030;SDS011;61072;47.808;7.636;2023-05-07T01:35:51;2.75;;;1.77;;
21030;SDS011;61072;47.808;7.636;2023-05-07T01:38:20;3.33;;;1.90;;
21030;SDS011;61072;47.808;7.636;2023-05-07T01:40:48;3.50;;;1.65;;
21030;SDS011;61072;47.808;7.636;2023-05-07T01:43:15;4.25;;;1.67;;
21030;SDS011;61072;47.808;7.636;2023-05-07T01:45:43;6.78;;;1.85;;
21030;SDS011;61072;47.808;7.636;2023-05-07T01:48:11;3.90;;;2.10;;
21030;SDS011;61072;47.808;7.636;2023-05-07T01:50:38;7.20;;;1.70;;
21030;SDS011;61072;47.808;7.636;2023-05-07T01:53:06;2.47;;;1.83;;
21030;SDS011;61072;47.808;7.636;2023-05-07T01:55:33;3.05;;;1.50;;
21030;SDS011;61072;47.808;7.636;2023-05-07T01:57:59;2.55;;;1.70;;
21030;SDS011;61072;47.808;7.636;2023-05-07T02:00:26;5.40;;;2.45;;
21030;SDS011;61072;47.808;7.636;2023-05-07T02:02:53;4.13;;;2.20;;
21030;SDS011;61072;47.808;7.636;2023-05-07T02:05:20;2.63;;;1.63;;
21030;SDS011;61072;47.808;7.636;2023-05-07T02:07:47;5.28;;;1.80;;
21030;SDS011;61072;47.808;7.636;2023-05-07T02:10:13;8.10;;;2.08;;
21030;SDS011;61072;47.808;7.636;2023-05-07T02:12:40;3.28;;;2.10;;
21030;SDS011;61072;47.808;7.636;2023-05-07T02:15:08;3.55;;;2.15;;
21030;SDS011;61072;47.808;7.636;2023-05-07T02:17:39;5.47;;;2.03;;
21030;SDS011;61072;47.808;7.636;2023-05-07T02:20:23;4.78;;;2.00;;
21030;SDS011;61072;47.808;7.636;2023-05-07T02:22:50;6.72;;;2.00;;
21030;SDS011;61072;47.808;7.636;2023-05-07T02:25:17;4.95;;;1.98;;
21030;SDS011;61072;47.808;7.636;2023-05-07T02:27:44;4.07;;;1.85;;
21030;SDS011;61072;47.808;7.636;2023-05-07T02:30:10;6.95;;;2.08;;
21030;SDS011;61072;47.808;7.636;2023-05-07T02:32:38;2.75;;;2.10;;
21030;SDS011;61072;47.808;7.636;2023-05-07T02:35:04;3.13;;;1.88;;
21030;SDS011;61072;47.808;7.636;2023-05-07T02:37:31;4.90;;;2.13;;
21030;SDS011;61072;47.808;7.636;2023-05-07T02:39:58;4.80;;;1.90;;
21030;SDS011;61072;47.808;7.636;2023-05-07T02:42:25;6.63;;;2.00;;
21030;SDS011;61072;47.808;7.636;2023-05-07T02:44:51;4.95;;;1.58;;
21030;SDS011;61072;47.808;7.636;2023-05-07T02:47:18;2.63;;;1.90;;
21030;SDS011;61072;47.808;7.636;2023-05-07T02:49:45;4.32;;;2.10;;
21030;SDS011;61072;47.808;7.636;2023-05-07T02:52:11;3.72;;;2.00;;
21030;SDS011;61072;47.808;7.636;2023-05-07T02:54:38;2.30;;;1.92;;
21030;SDS011;61072;47.808;7.636;2023-05-07T02:57:05;7.82;;;2.47;;
21030;SDS011;61072;47.808;7.636;2023-05-07T02:59:32;4.55;;;2.03;;
21030;SDS011;61072;47.808;7.636;2023-05-07T03:01:59;4.43;;;2.03;;
21030;SDS011;61072;47.808;7.636;2023-05-07T03:04:25;6.22;;;1.90;;
21030;SDS011;61072;47.808;7.636;2023-05-07T03:06:52;2.55;;;2.03;;
21030;SDS011;61072;47.808;7.636;2023-05-07T03:09:19;6.45;;;2.00;;
21030;SDS011;61072;47.808;7.636;2023-05-07T03:11:46;2.30;;;2.00;;
21030;SDS011;61072;47.808;7.636;2023-05-07T03:14:12;2.53;;;1.90;;
21030;SDS011;61072;47.808;7.636;2023-05-07T03:16:39;4.53;;;2.10;;
21030;SDS011;61072;47.808;7.636;2023-05-07T03:19:06;4.68;;;1.65;;
21030;SDS011;61072;47.808;7.636;2023-05-07T03:21:33;5.25;;;1.80;;
21030;SDS011;61072;47.808;7.636;2023-05-07T03:24:00;4.20;;;1.75;;
21030;SDS011;61072;47.808;7.636;2023-05-07T03:26:27;2.85;;;1.90;;
21030;SDS011;61072;47.808;7.636;2023-05-07T03:28:54;4.53;;;2.10;;
21030;SDS011;61072;47.808;7.636;2023-05-07T03:31:21;4.45;;;2.00;;
21030;SDS011;61072;47.808;7.636;2023-05-07T03:33:54;4.65;;;2.10;;
21030;SDS011;61072;47.808;7.636;2023-05-07T03:36:22;3.60;;;1.70;;
21030;SDS011;61072;47.808;7.636;2023-05-07T03:38:50;1.98;;;1.75;;
21030;SDS011;61072;47.808;7.636;2023-05-07T03:41:16;3.58;;;2.33;;
21030;SDS011;61072;47.808;7.636;2023-05-07T03:43:43;3.20;;;2.00;;
21030;SDS011;61072;47.808;7.636;2023-05-07T03:46:10;3.92;;;2.13;;
21030;SDS011;61072;47.808;7.636;2023-05-07T03:48:37;6.38;;;2.33;;
21030;SDS011;61072;47.808;7.636;2023-05-07T03:51:04;6.20;;;2.10;;
21030;SDS011;61072;47.808;7.636;2023-05-07T03:53:31;2.22;;;1.52;;
21030;SDS011;61072;47.808;7.636;2023-05-07T03:55:57;6.50;;;1.90;;
21030;SDS011;61072;47.808;7.636;2023-05-07T03:58:24;5.32;;;2.28;;
21030;SDS011;61072;47.808;7.636;2023-05-07T04:00:51;3.45;;;1.88;;
21030;SDS011;61072;47.808;7.636;2023-05-07T04:03:18;4.75;;;2.47;;
21030;SDS011;61072;47.808;7.636;2023-05-07T04:05:45;2.50;;;2.15;;
21030;SDS011;61072;47.808;7.636;2023-05-07T04:08:11;8.52;;;2.97;;
21030;SDS011;61072;47.808;7.636;2023-05-07T04:10:38;7.63;;;2.47;;
21030;SDS011;61072;47.808;7.636;2023-05-07T04:13:05;8.70;;;2.08;;
21030;SDS011;61072;47.808;7.636;2023-05-07T04:15:31;7.80;;;2.20;;
21030;SDS011;61072;47.808;7.636;2023-05-07T04:17:58;4.40;;;2.30;;
21030;SDS011;61072;47.808;7.636;2023-05-07T04:20:25;2.75;;;1.60;;
21030;SDS011;61072;47.808;7.636;2023-05-07T04:22:52;4.25;;;2.10;;
21030;SDS011;61072;47.808;7.636;2023-05-07T04:25:19;3.15;;;2.08;;
21030;SDS011;61072;47.808;7.636;2023-05-07T04:27:45;4.00;;;2.30;;
21030;SDS011;61072;47.808;7.636;2023-05-07T04:30:12;5.72;;;2.10;;
21030;SDS011;61072;47.808;7.636;2023-05-07T04:32:40;3.60;;;2.05;;
21030;SDS011;61072;47.808;7.636;2023-05-07T04:35:06;6.38;;;2.67;;
21030;SDS011;61072;47.808;7.636;2023-05-07T04:37:33;3.28;;;2.22;;
21030;SDS011;61072;47.808;7.636;2023-05-07T04:40:01;2.75;;;1.85;;
21030;SDS011;61072;47.808;7.636;2023-05-07T04:42:27;4.72;;;1.85;;
21030;SDS011;61072;47.808;7.636;2023-05-07T04:44:54;4.85;;;1.92;;
21030;SDS011;61072;47.808;7.636;2023-05-07T04:47:21;3.83;;;2.28;;
21030;SDS011;61072;47.808;7.636;2023-05-07T04:49:48;2.45;;;2.15;;
21030;SDS011;61072;47.808;7.636;2023-05-07T04:52:14;3.92;;;2.10;;
21030;SDS011;61072;47.808;7.636;2023-05-07T04:54:41;3.95;;;2.03;;
21030;SDS011;61072;47.808;7.636;2023-05-07T04:57:08;4.03;;;2.20;;
21030;SDS011;61072;47.808;7.636;2023-05-07T04:59:35;7.22;;;2.70;;
21030;SDS011;61072;47.808;7.636;2023-05-07T05:02:02;8.80;;;2.67;;
21030;SDS011;61072;47.808;7.636;2023-05-07T05:04:30;3.78;;;2.60;;
21030;SDS011;61072;47.808;7.636;2023-05-07T05:06:57;3.47;;;2.80;;
21030;SDS011;61072;47.808;7.636;2023-05-07T05:09:24;7.07;;;2.70;;
21030;SDS011;61072;47.808;7.636;2023-05-07T05:11:51;2.83;;;2.60;;
21030;SDS011;61072;47.808;7.636;2023-05-07T05:14:17;5.05;;;2.65;;
21030;SDS011;61072;47.808;7.636;2023-05-07T05:16:44;5.22;;;2.63;;
21030;SDS011;61072;47.808;7.636;2023-05-07T05:19:11;5.45;;;2.60;;
21030;SDS011;61072;47.808;7.636;2023-05-07T05:21:37;4.63;;;2.78;;
21030;SDS011;61072;47.808;7.636;2023-05-07T05:24:04;3.55;;;2.50;;
21030;SDS011;61072;47.808;7.636;2023-05-07T05:26:31;13.25;;;3.88;;
21030;SDS011;61072;47.808;7.636;2023-05-07T05:28:58;29.73;;;18.88;;
21030;SDS011;61072;47.808;7.636;2023-05-07T05:31:25;47.53;;;29.67;;
21030;SDS011;61072;47.808;7.636;2023-05-07T05:33:52;30.38;;;18.95;;
21030;SDS011;61072;47.808;7.636;2023-05-07T05:36:18;9.13;;;6.43;;
21030;SDS011;61072;47.808;7.636;2023-05-07T05:38:45;4.30;;;3.72;;
21030;SDS011;61072;47.808;7.636;2023-05-07T05:41:12;3.95;;;2.38;;
21030;SDS011;61072;47.808;7.636;2023-05-07T05:43:39;6.78;;;2.75;;
21030;SDS011;61072;47.808;7.636;2023-05-07T05:46:05;5.78;;;4.05;;
21030;SDS011;61072;47.808;7.636;2023-05-07T05:48:32;9.70;;;5.60;;
21030;SDS011;61072;47.808;7.636;2023-05-07T05:50:59;7.90;;;3.90;;
21030;SDS011;61072;47.808;7.636;2023-05-07T05:53:26;5.35;;;3.97;;
21030;SDS011;61072;47.808;7.636;2023-05-07T05:55:53;7.07;;;4.00;;
21030;SDS011;61072;47.808;7.636;2023-05-07T05:58:19;7.43;;;3.88;;
21030;SDS011;61072;47.808;7.636;2023-05-07T06:00:46;7.13;;;4.53;;
21030;SDS011;61072;47.808;7.636;2023-05-07T06:03:14;7.93;;;4.55;;
21030;SDS011;61072;47.808;7.636;2023-05-07T06:05:41;4.28;;;3.03;;
21030;SDS011;61072;47.808;7.636;2023-05-07T06:08:08;4.68;;;2.88;;
21030;SDS011;61072;47.808;7.636;2023-05-07T06:10:35;8.90;;;3.60;;
21030;SDS011;61072;47.808;7.636;2023-05-07T06:13:03;8.15;;;2.80;;
21030;SDS011;61072;47.808;7.636;2023-05-07T06:15:30;5.05;;;2.40;;
21030;SDS011;61072;47.808;7.636;2023-05-07T06:17:56;4.15;;;2.70;;
21030;SDS011;61072;47.808;7.636;2023-05-07T06:20:23;5.03;;;2.95;;
21030;SDS011;61072;47.808;7.636;2023-05-07T06:22:50;5.22;;;3.03;;
21030;SDS011;61072;47.808;7.636;2023-05-07T06:25:17;5.57;;;3.60;;
21030;SDS011;61072;47.808;7.636;2023-05-07T06:27:43;6.30;;;3.38;;
21030;SDS011;61072;47.808;7.636;2023-05-07T06:30:10;6.07;;;3.58;;
21030;SDS011;61072;47.808;7.636;2023-05-07T06:32:39;4.57;;;3.55;;
21030;SDS011;61072;47.808;7.636;2023-05-07T06:35:07;4.63;;;2.90;;
21030;SDS011;61072;47.808;7.636;2023-05-07T06:37:34;4.72;;;2.92;;
21030;SDS011;61072;47.808;7.636;2023-05-07T06:40:01;5.35;;;2.70;;
21030;SDS011;61072;47.808;7.636;2023-05-07T06:42:28;7.22;;;3.40;;
21030;SDS011;61072;47.808;7.636;2023-05-07T06:44:54;4.70;;;2.90;;
21030;SDS011;61072;47.808;7.636;2023-05-07T06:47:21;3.47;;;2.60;;
21030;SDS011;61072;47.808;7.636;2023-05-07T06:49:48;8.80;;;3.25;;
21030;SDS011;61072;47.808;7.636;2023-05-07T06:52:14;5.30;;;3.28;;
21030;SDS011;61072;47.808;7.636;2023-05-07T06:54:41;7.45;;;3.20;;
21030;SDS011;61072;47.808;7.636;2023-05-07T06:57:08;7.00;;;2.92;;
21030;SDS011;61072;47.808;7.636;2023-05-07T06:59:35;3.15;;;2.83;;
21030;SDS011;61072;47.808;7.636;2023-05-07T07:02:01;6.10;;;3.65;;
21030;SDS011;61072;47.808;7.636;2023-05-07T07:04:28;6.32;;;3.10;;
21030;SDS011;61072;47.808;7.636;2023-05-07T07:06:55;3.95;;;2.70;;
21030;SDS011;61072;47.808;7.636;2023-05-07T07:09:23;4.05;;;2.63;;
21030;SDS011;61072;47.808;7.636;2023-05-07T07:11:49;5.55;;;2.47;;
21030;SDS011;61072;47.808;7.636;2023-05-07T07:14:16;3.63;;;2.65;;
21030;SDS011;61072;47.808;7.636;2023-05-07T07:16:43;3.58;;;2.67;;
21030;SDS011;61072;47.808;7.636;2023-05-07T07:19:09;5.07;;;2.40;;
21030;SDS011;61072;47.808;7.636;2023-05-07T07:21:36;3.97;;;2.70;;
21030;SDS011;61072;47.808;7.636;2023-05-07T07:24:03;4.05;;;2.22;;
21030;SDS011;61072;47.808;7.636;2023-05-07T07:26:30;5.13;;;3.15;;
21030;SDS011;61072;47.808;7.636;2023-05-07T07:28:57;4.57;;;2.58;;
21030;SDS011;61072;47.808;7.636;2023-05-07T07:31:24;5.22;;;2.33;;
21030;SDS011;61072;47.808;7.636;2023-05-07T07:33:50;5.25;;;2.45;;
21030;SDS011;61072;47.808;7.636;2023-05-07T07:36:18;4.63;;;2.63;;
21030;SDS011;61072;47.808;7.636;2023-05-07T07:38:45;4.53;;;2.20;;
21030;SDS011;61072;47.808;7.636;2023-05-07T07:41:11;3.78;;;2.47;;
21030;SDS011;61072;47.808;7.636;2023-05-07T07:43:38;3.72;;;2.13;;
21030;SDS011;61072;47.808;7.636;2023-05-07T07:46:05;4.68;;;2.15;;
21030;SDS011;61072;47.808;7.636;2023-05-07T07:48:32;3.20;;;2.33;;
21030;SDS011;61072;47.808;7.636;2023-05-07T07:50:59;4.15;;;2.30;;
21030;SDS011;61072;47.808;7.636;2023-05-07T07:53:25;5.38;;;2.50;;
21030;SDS011;61072;47.808;7.636;2023-05-07T07:55:52;2.80;;;2.08;;
21030;SDS011;61072;47.808;7.636;2023-05-07T07:58:24;3.95;;;2.15;;
21030;SDS011;61072;47.808;7.636;2023-05-07T08:00:51;3.80;;;2.28;;
21030;SDS011;61072;47.808;7.636;2023-05-07T08:03:17;3.67;;;2.50;;
21030;SDS011;61072;47.808;7.636;2023-05-07T08:05:45;4.75;;;2.25;;
21030;SDS011;61072;47.808;7.636;2023-05-07T08:08:12;3.13;;;2.13;;
21030;SDS011;61072;47.808;7.636;2023-05-07T08:10:39;6.00;;;2.72;;
21030;SDS011;61072;47.808;7.636;2023-05-07T08:13:06;3.22;;;2.45;;
21030;SDS011;61072;47.808;7.636;2023-05-07T08:15:33;3.28;;;2.00;;
21030;SDS011;61072;47.808;7.636;2023-05-07T08:18:00;4.55;;;2.30;;
21030;SDS011;61072;47.808;7.636;2023-05-07T08:20:28;4.10;;;2.20;;
21030;SDS011;61072;47.808;7.636;2023-05-07T08:22:55;6.70;;;2.30;;
21030;SDS011;61072;47.808;7.636;2023-05-07T08:25:21;5.78;;;2.47;;
21030;SDS011;61072;47.808;7.636;2023-05-07T08:27:48;5.05;;;2.30;;
21030;SDS011;61072;47.808;7.636;2023-05-07T08:30:15;3.67;;;2.15;;
21030;SDS011;61072;47.808;7.636;2023-05-07T08:32:42;5.05;;;2.00;;
21030;SDS011;61072;47.808;7.636;2023-05-07T08:35:08;2.75;;;2.00;;
21030;SDS011;61072;47.808;7.636;2023-05-07T08:37:35;2.78;;;1.98;;
21030;SDS011;61072;47.808;7.636;2023-05-07T08:40:02;3.13;;;2.50;;
21030;SDS011;61072;47.808;7.636;2023-05-07T08:42:32;3.83;;;2.10;;
21030;SDS011;61072;47.808;7.636;2023-05-07T08:45:03;5.68;;;2.33;;
21030;SDS011;61072;47.808;7.636;2023-05-07T08:47:37;3.13;;;2.25;;
21030;SDS011;61072;47.808;7.636;2023-05-07T08:50:08;6.05;;;2.53;;
21030;SDS011;61072;47.808;7.636;2023-05-07T08:52:36;6.57;;;2.95;;
21030;SDS011;61072;47.808;7.636;2023-05-07T08:55:03;8.52;;;3.92;;
21030;SDS011;61072;47.808;7.636;2023-05-07T08:57:30;6.45;;;2.70;;
21030;SDS011;61072;47.808;7.636;2023-05-07T08:59:57;4.57;;;2.78;;
21030;SDS011;61072;47.808;7.636;2023-05-07T09:02:23;4.45;;;3.55;;
21030;SDS011;61072;47.808;7.636;2023-05-07T09:04:50;3.60;;;3.00;;
21030;SDS011;61072;47.808;7.636;2023-05-07T09:07:19;4.68;;;2.65;;
21030;SDS011;61072;47.808;7.636;2023-05-07T09:09:46;4.10;;;2.75;;
21030;SDS011;61072;47.808;7.636;2023-05-07T09:12:13;5.95;;;3.25;;
21030;SDS011;61072;47.808;7.636;2023-05-07T09:14:39;4.63;;;3.30;;
21030;SDS011;61072;47.808;7.636;2023-05-07T09:17:06;3.63;;;2.75;;
21030;SDS011;61072;47.808;7.636;2023-05-07T09:19:33;7.38;;;3.17;;
21030;SDS011;61072;47.808;7.636;2023-05-07T09:22:00;5.85;;;3.17;;
21030;SDS011;61072;47.808;7.636;2023-05-07T09:24:28;5.10;;;3.15;;
21030;SDS011;61072;47.808;7.636;2023-05-07T09:27:00;3.75;;;3.17;;
21030;SDS011;61072;47.808;7.636;2023-05-07T09:29:28;5.25;;;3.65;;
21030;SDS011;61072;47.808;7.636;2023-05-07T09:31:56;11.00;;;3.78;;
21030;SDS011;61072;47.808;7.636;2023-05-07T09:34:23;9.90;;;3.60;;
21030;SDS011;61072;47.808;7.636;2023-05-07T09:36:49;6.25;;;3.38;;
21030;SDS011;61072;47.808;7.636;2023-05-07T09:39:16;7.43;;;3.92;;
21030;SDS011;61072;47.808;7.636;2023-05-07T09:41:43;4.38;;;3.13;;
21030;SDS011;61072;47.808;7.636;2023-05-07T09:44:12;5.53;;;3.08;;
21030;SDS011;61072;47.808;7.636;2023-05-07T09:46:41;6.57;;;3.15;;
21030;SDS011;61072;47.808;7.636;2023-05-07T09:49:11;6.10;;;3.53;;
21030;SDS011;61072;47.808;7.636;2023-05-07T09:51:48;6.47;;;3.58;;
21030;SDS011;61072;47.808;7.636;2023-05-07T09:54:16;7.10;;;3.55;;
21030;SDS011;61072;47.808;7.636;2023-05-07T09:56:50;11.35;;;3.83;;
21030;SDS011;61072;47.808;7.636;2023-05-07T09:59:19;8.70;;;3.90;;
21030;SDS011;61072;47.808;7.636;2023-05-07T10:01:47;7.45;;;4.05;;
21030;SDS011;61072;47.808;7.636;2023-05-07T10:04:16;6.50;;;3.88;;
21030;SDS011;61072;47.808;7.636;2023-05-07T10:06:44;5.13;;;4.15;;
21030;SDS011;61072;47.808;7.636;2023-05-07T10:09:12;8.73;;;4.55;;
21030;SDS011;61072;47.808;7.636;2023-05-07T10:11:39;7.78;;;3.70;;
21030;SDS011;61072;47.808;7.636;2023-05-07T10:14:07;5.97;;;3.42;;
21030;SDS011;61072;47.808;7.636;2023-05-07T10:16:34;7.32;;;3.40;;
21030;SDS011;61072;47.808;7.636;2023-05-07T10:19:03;5.70;;;4.13;;
21030;SDS011;61072;47.808;7.636;2023-05-07T10:21:32;4.15;;;3.63;;
21030;SDS011;61072;47.808;7.636;2023-05-07T10:24:08;6.80;;;3.65;;
21030;SDS011;61072;47.808;7.636;2023-05-07T10:26:42;3.83;;;2.90;;
21030;SDS011;61072;47.808;7.636;2023-05-07T10:31:48;4.43;;;2.63;;
21030;SDS011;61072;47.808;7.636;2023-05-07T10:34:38;4.78;;;2.53;;
21030;SDS011;61072;47.808;7.636;2023-05-07T10:37:09;4.00;;;2.10;;
21030;SDS011;61072;47.808;7.636;2023-05-07T10:39:37;6.07;;;2.50;;
21030;SDS011;61072;47.808;7.636;2023-05-07T10:42:08;3.25;;;2.35;;
21030;SDS011;61072;47.808;7.636;2023-05-07T10:44:39;4.25;;;2.67;;
21030;SDS011;61072;47.808;7.636;2023-05-07T10:47:13;3.70;;;2.10;;
21030;SDS011;61072;47.808;7.636;2023-05-07T10:52:15;8.13;;;3.42;;
21030;SDS011;61072;47.808;7.636;2023-05-07T10:54:45;2.80;;;2.50;;
21030;SDS011;61072;47.808;7.636;2023-05-07T10:59:57;3.05;;;2.28;;
21030;SDS011;61072;47.808;7.636;2023-05-07T11:02:51;3.63;;;1.98;;
21030;SDS011;61072;47.808;7.636;2023-05-07T11:05:27;3.60;;;1.70;;
21030;SDS011;61072;47.808;7.636;2023-05-07T11:08:02;5.78;;;2.58;;
21030;SDS011;61072;47.808;7.636;2023-05-07T11:10:47;5.38;;;2.30;;
21030;SDS011;61072;47.808;7.636;2023-05-07T11:16:22;2.38;;;1.73;;
21030;SDS011;61072;47.808;7.636;2023-05-07T11:18:51;4.82;;;2.42;;
21030;SDS011;61072;47.808;7.636;2023-05-07T11:21:35;4.60;;;2.15;;
21030;SDS011;61072;47.808;7.636;2023-05-07T11:24:07;2.35;;;1.60;;
21030;SDS011;61072;47.808;7.636;2023-05-07T11:26:42;5.80;;;1.95;;
21030;SDS011;61072;47.808;7.636;2023-05-07T11:29:14;4.00;;;2.10;;
21030;SDS011;61072;47.808;7.636;2023-05-07T11:31:53;2.63;;;2.03;;
21030;SDS011;61072;47.808;7.636;2023-05-07T11:34:21;2.88;;;2.10;;
21030;SDS011;61072;47.808;7.636;2023-05-07T11:36:49;5.22;;;1.90;;
21030;SDS011;61072;47.808;7.636;2023-05-07T11:39:26;3.13;;;2.10;;
21030;SDS011;61072;47.808;7.636;2023-05-07T11:41:59;4.00;;;2.10;;
21030;SDS011;61072;47.808;7.636;2023-05-07T11:44:39;3.25;;;1.92;;
21030;SDS011;61072;47.808;7.636;2023-05-07T11:47:10;5.55;;;2.40;;
21030;SDS011;61072;47.808;7.636;2023-05-07T11:49:37;4.05;;;2.10;;
21030;SDS011;61072;47.808;7.636;2023-05-07T11:52:04;2.75;;;2.08;;
21030;SDS011;61072;47.808;7.636;2023-05-07T11:54:35;3.05;;;2.30;;
21030;SDS011;61072;47.808;7.636;2023-05-07T11:57:03;4.70;;;1.90;;
21030;SDS011;61072;47.808;7.636;2023-05-07T11:59:29;3.33;;;1.90;;
21030;SDS011;61072;47.808;7.636;2023-05-07T12:01:57;4.68;;;1.58;;
21030;SDS011;61072;47.808;7.636;2023-05-07T12:04:25;3.88;;;1.77;;
21030;SDS011;61072;47.808;7.636;2023-05-07T12:06:55;5.05;;;1.67;;
21030;SDS011;61072;47.808;7.636;2023-05-07T12:09:22;3.90;;;1.73;;
21030;SDS011;61072;47.808;7.636;2023-05-07T12:11:49;3.60;;;1.92;;
21030;SDS011;61072;47.808;7.636;2023-05-07T12:14:17;5.38;;;1.83;;
21030;SDS011;61072;47.808;7.636;2023-05-07T12:16:44;2.75;;;1.50;;
21030;SDS011;61072;47.808;7.636;2023-05-07T12:19:11;1.42;;;1.30;;
21030;SDS011;61072;47.808;7.636;2023-05-07T12:21:41;3.63;;;1.65;;
21030;SDS011;61072;47.808;7.636;2023-05-07T12:24:08;2.53;;;1.70;;
21030;SDS011;61072;47.808;7.636;2023-05-07T12:26:38;3.55;;;1.77;;
21030;SDS011;61072;47.808;7.636;2023-05-07T12:29:06;3.33;;;1.35;;
21030;SDS011;61072;47.808;7.636;2023-05-07T12:31:33;3.00;;;1.77;;
21030;SDS011;61072;47.808;7.636;2023-05-07T12:34:00;2.03;;;1.50;;
21030;SDS011;61072;47.808;7.636;2023-05-07T12:36:35;6.28;;;1.60;;
21030;SDS011;61072;47.808;7.636;2023-05-07T12:39:06;3.08;;;1.77;;
21030;SDS011;61072;47.808;7.636;2023-05-07T12:41:53;3.10;;;1.60;;
21030;SDS011;61072;47.808;7.636;2023-05-07T12:44:25;2.85;;;1.73;;
21030;SDS011;61072;47.808;7.636;2023-05-07T12:46:55;1.90;;;1.55;;
21030;SDS011;61072;47.808;7.636;2023-05-07T12:49:22;3.58;;;1.90;;
21030;SDS011;61072;47.808;7.636;2023-05-07T12:51:50;3.25;;;1.70;;
21030;SDS011;61072;47.808;7.636;2023-05-07T12:54:27;3.70;;;1.70;;
21030;SDS011;61072;47.808;7.636;2023-05-07T12:57:04;2.42;;;1.83;;
21030;SDS011;61072;47.808;7.636;2023-05-07T12:59:33;2.80;;;1.77;;
21030;SDS011;61072;47.808;7.636;2023-05-07T13:02:04;3.42;;;1.85;;
21030;SDS011;61072;47.808;7.636;2023-05-07T13:04:31;2.13;;;1.40;;
21030;SDS011;61072;47.808;7.636;2023-05-07T13:06:59;3.50;;;1.10;;
21030;SDS011;61072;47.808;7.636;2023-05-07T13:09:26;2.35;;;1.38;;
21030;SDS011;61072;47.808;7.636;2023-05-07T13:11:55;2.78;;;1.30;;
21030;SDS011;61072;47.808;7.636;2023-05-07T13:14:21;2.30;;;1.30;;
21030;SDS011;61072;47.808;7.636;2023-05-07T13:16:48;2.08;;;1.10;;
21030;SDS011;61072;47.808;7.636;2023-05-07T13:19:15;2.55;;;1.48;;
21030;SDS011;61072;47.808;7.636;2023-05-07T13:21:42;5.30;;;2.05;;
21030;SDS011;61072;47.808;7.636;2023-05-07T13:24:09;3.03;;;1.40;;
21030;SDS011;61072;47.808;7.636;2023-05-07T13:26:36;3.80;;;1.58;;
21030;SDS011;61072;47.808;7.636;2023-05-07T13:29:02;3.55;;;1.90;;
21030;SDS011;61072;47.808;7.636;2023-05-07T13:31:29;3.50;;;1.50;;
21030;SDS011;61072;47.808;7.636;2023-05-07T13:33:56;3.17;;;1.27;;
21030;SDS011;61072;47.808;7.636;2023-05-07T13:36:23;2.60;;;1.50;;
21030;SDS011;61072;47.808;7.636;2023-05-07T13:38:50;2.10;;;1.55;;
21030;SDS011;61072;47.808;7.636;2023-05-07T13:41:18;2.65;;;1.55;;
21030;SDS011;61072;47.808;7.636;2023-05-07T13:43:44;5.22;;;1.50;;
21030;SDS011;61072;47.808;7.636;2023-05-07T13:46:11;2.60;;;1.50;;
21030;SDS011;61072;47.808;7.636;2023-05-07T13:48:38;1.80;;;1.10;;
21030;SDS011;61072;47.808;7.636;2023-05-07T13:51:04;2.72;;;1.20;;
21030;SDS011;61072;47.808;7.636;2023-05-07T13:53:31;1.90;;;1.48;;
21030;SDS011;61072;47.808;7.636;2023-05-07T13:55:58;2.70;;;1.40;;
21030;SDS011;61072;47.808;7.636;2023-05-07T13:58:25;2.17;;;1.60;;
21030;SDS011;61072;47.808;7.636;2023-05-07T14:00:51;2.10;;;1.50;;
21030;SDS011;61072;47.808;7.636;2023-05-07T14:03:18;3.33;;;1.38;;
21030;SDS011;61072;47.808;7.636;2023-05-07T14:05:46;1.60;;;1.50;;
21030;SDS011;61072;47.808;7.636;2023-05-07T14:08:15;2.92;;;1.60;;
21030;SDS011;61072;47.808;7.636;2023-05-07T14:10:44;2.50;;;1.52;;
21030;SDS011;61072;47.808;7.636;2023-05-07T14:13:12;4.28;;;1.95;;
21030;SDS011;61072;47.808;7.636;2023-05-07T14:15:39;1.95;;;1.50;;
21030;SDS011;61072;47.808;7.636;2023-05-07T14:18:06;4.80;;;1.70;;
21030;SDS011;61072;47.808;7.636;2023-05-07T14:20:33;1.95;;;1.70;;
21030;SDS011;61072;47.808;7.636;2023-05-07T14:23:03;4.35;;;1.83;;
21030;SDS011;61072;47.808;7.636;2023-05-07T14:25:29;1.95;;;1.70;;
21030;SDS011;61072;47.808;7.636;2023-05-07T14:27:56;2.10;;;1.60;;
21030;SDS011;61072;47.808;7.636;2023-05-07T14:30:23;5.03;;;1.95;;
21030;SDS011;61072;47.808;7.636;2023-05-07T14:32:50;3.65;;;2.13;;
21030;SDS011;61072;47.808;7.636;2023-05-07T14:35:17;2.47;;;1.73;;
21030;SDS011;61072;47.808;7.636;2023-05-07T14:37:44;3.03;;;2.08;;
21030;SDS011;61072;47.808;7.636;2023-05-07T14:40:11;3.17;;;1.83;;
21030;SDS011;61072;47.808;7.636;2023-05-07T14:42:38;4.32;;;2.45;;
21030;SDS011;61072;47.808;7.636;2023-05-07T14:45:05;2.97;;;2.00;;
21030;SDS011;61072;47.808;7.636;2023-05-07T14:47:32;4.45;;;2.25;;
21030;SDS011;61072;47.808;7.636;2023-05-07T14:49:59;3.80;;;2.00;;
21030;SDS011;61072;47.808;7.636;2023-05-07T14:52:27;3.90;;;2.22;;
21030;SDS011;61072;47.808;7.636;2023-05-07T14:54:54;2.92;;;2.45;;
21030;SDS011;61072;47.808;7.636;2023-05-07T14:57:20;1.88;;;1.58;;
21030;SDS011;61072;47.808;7.636;2023-05-07T14:59:47;5.03;;;2.00;;
21030;SDS011;61072;47.808;7.636;2023-05-07T15:02:14;2.90;;;1.92;;
21030;SDS011;61072;47.808;7.636;2023-05-07T15:04:41;2.97;;;1.70;;